Observation data for Seminole on 03/26/2019      Previous  Date  Next       Current Mesonet Observations  Soil Data  Daily Summary Page  Observations in Plain Language
KSM1 260500Z 12006KT 10/05 A3028 RMK A01 T01030046  RH  069%=      5-min Rain = 0
KSM1 260505Z 12007KT 10/05 A3028 RMK A01 T01010046  RH  070%=      5-min Rain = 0
KSM1 260510Z 12007KT 10/05 A3028 RMK A01 T01000046  RH  071%=      5-min Rain = 0
KSM1 260515Z 12006KT 10/05 A3028 RMK A01 T00980046  RH  072%=      5-min Rain = 0
KSM1 260520Z 12007KT 10/05 A3028 RMK A01 T00960046  RH  073%=      5-min Rain = 0
KSM1 260525Z 12007KT 10/05 A3028 RMK A01 T00950047  RH  073%=      5-min Rain = 0
KSM1 260530Z 12007KT 09/05 A3028 RMK A01 T00930047  RH  074%=      5-min Rain = 0
KSM1 260535Z 12007KT 09/05 A3028 RMK A01 T00930047  RH  074%=      5-min Rain = 0
KSM1 260540Z 12008KT 09/05 A3028 RMK A01 T00940047  RH  074%=      5-min Rain = 0
KSM1 260545Z 12008KT 10/05 A3028 RMK A01 T00950048  RH  074%=      5-min Rain = 0
KSM1 260550Z 12008KT 10/05 A3028 RMK A01 T00950048  RH  074%=      5-min Rain = 0
KSM1 260555Z 12008KT 10/05 A3028 RMK A01 T00950049  RH  074%=      5-min Rain = 0
KSM1 260600Z 12009KT 10/05 A3028 RMK A01 T00970049  RH  074%=      5-min Rain = 0
KSM1 260605Z 12008KT 10/05 A3028 RMK A01 T00970050  RH  074%=      5-min Rain = 0
KSM1 260610Z 12008KT 10/05 A3028 RMK A01 T00980050  RH  074%=      5-min Rain = 0
KSM1 260615Z 12009KT 10/05 A3028 RMK A01 T00980050  RH  074%=      5-min Rain = 0
KSM1 260620Z 12009KT 10/05 A3028 RMK A01 T00970051  RH  074%=      5-min Rain = 0
KSM1 260625Z 12009KT 10/05 A3028 RMK A01 T00970051  RH  075%=      5-min Rain = 0
KSM1 260630Z 12009KT 10/05 A3027 RMK A01 T00970051  RH  075%=      5-min Rain = 0
KSM1 260635Z 12008KT 10/05 A3027 RMK A01 T00960051  RH  075%=      5-min Rain = 0
KSM1 260640Z 12008KT 09/05 A3027 RMK A01 T00940051  RH  076%=      5-min Rain = 0
KSM1 260645Z 12008KT 09/05 A3027 RMK A01 T00930051  RH  077%=      5-min Rain = 0
KSM1 260650Z 12008KT 09/05 A3027 RMK A01 T00930051  RH  077%=      5-min Rain = 0
KSM1 260655Z 12008KT 09/05 A3027 RMK A01 T00930051  RH  077%=      5-min Rain = 0
KSM1 260700Z 11008KT 09/05 A3027 RMK A01 T00920051  RH  077%=      5-min Rain = 0
KSM1 260705Z 11008KT 09/05 A3027 RMK A01 T00920051  RH  077%=      5-min Rain = 0
KSM1 260710Z 12007KT 09/05 A3027 RMK A01 T00910051  RH  078%=      5-min Rain = 0
KSM1 260715Z 12007KT 09/05 A3027 RMK A01 T00890050  RH  078%=      5-min Rain = 0
KSM1 260720Z 12007KT 09/05 A3027 RMK A01 T00870050  RH  080%=      5-min Rain = 0
KSM1 260725Z 12008KT 09/05 A3027 RMK A01 T00860051  RH  080%=      5-min Rain = 0
KSM1 260730Z 12008KT 09/05 A3027 RMK A01 T00860051  RH  080%=      5-min Rain = 0
KSM1 260735Z 12007KT 09/05 A3027 RMK A01 T00860051  RH  080%=      5-min Rain = 0
KSM1 260740Z 12008KT 09/05 A3027 RMK A01 T00850051  RH  081%=      5-min Rain = 0
KSM1 260745Z 12008KT 08/05 A3026 RMK A01 T00830051  RH  082%=      5-min Rain = 0
KSM1 260750Z 13008KT 08/05 A3026 RMK A01 T00820050  RH  082%=      5-min Rain = 0
KSM1 260755Z 13008KT 08/05 A3026 RMK A01 T00810050  RH  083%=      5-min Rain = 0
KSM1 260800Z 12007KT 08/05 A3027 RMK A01 T00800050  RH  083%=      5-min Rain = 0
KSM1 260805Z 11007KT 08/05 A3027 RMK A01 T00790050  RH  084%=      5-min Rain = 0
KSM1 260810Z 10007KT 08/05 A3027 RMK A01 T00800050  RH  084%=      5-min Rain = 0
KSM1 260815Z 11007KT 08/05 A3027 RMK A01 T00780049  RH  084%=      5-min Rain = 0
KSM1 260820Z 11007KT 08/05 A3027 RMK A01 T00780050  RH  084%=      5-min Rain = 0
KSM1 260825Z 11007KT 08/05 A3027 RMK A01 T00780050  RH  084%=      5-min Rain = 0
KSM1 260830Z 12007KT 08/05 A3027 RMK A01 T00770049  RH  084%=      5-min Rain = 0
KSM1 260835Z 12006KT 07/05 A3027 RMK A01 T00740047  RH  085%=      5-min Rain = 0
KSM1 260840Z 11006KT 07/05 A3027 RMK A01 T00730048  RH  086%=      5-min Rain = 0
KSM1 260845Z 12006KT 07/05 A3027 RMK A01 T00720047  RH  086%=      5-min Rain = 0
KSM1 260850Z 13005KT 07/05 A3027 RMK A01 T00700045  RH  086%=      5-min Rain = 0
KSM1 260855Z 13005KT 07/04 A3027 RMK A01 T00650041  RH  086%=      5-min Rain = 0
KSM1 260900Z 13006KT 06/04 A3027 RMK A01 T00610040  RH  088%=      5-min Rain = 0
KSM1 260905Z 12006KT 06/04 A3027 RMK A01 T00600040  RH  089%=      5-min Rain = 0
KSM1 260910Z 11006KT 06/04 A3027 RMK A01 T00600042  RH  090%=      5-min Rain = 0
KSM1 260915Z 12007KT 06/04 A3027 RMK A01 T00630044  RH  090%=      5-min Rain = 0
KSM1 260920Z 12007KT 06/04 A3026 RMK A01 T00630044  RH  089%=      5-min Rain = 0
KSM1 260925Z 12007KT 06/04 A3026 RMK A01 T00620043  RH  089%=      5-min Rain = 0
KSM1 260930Z 12006KT 06/04 A3026 RMK A01 T00610042  RH  090%=      5-min Rain = 0
KSM1 260935Z 12005KT 06/04 A3026 RMK A01 T00590041  RH  090%=      5-min Rain = 0
KSM1 260940Z 10006KT 06/04 A3026 RMK A01 T00600044  RH  091%=      5-min Rain = 0
KSM1 260945Z 10006KT 06/05 A3026 RMK A01 T00630046  RH  091%=      5-min Rain = 0
KSM1 260950Z 09006KT 06/04 A3027 RMK A01 T00610042  RH  090%=      5-min Rain = 0
KSM1 260955Z 09006KT 06/04 A3026 RMK A01 T00600043  RH  091%=      5-min Rain = 0
KSM1 261000Z 10006KT 06/04 A3026 RMK A01 T00600043  RH  091%=      5-min Rain = 0
KSM1 261005Z 10006KT 06/05 A3026 RMK A01 T00610045  RH  091%=      5-min Rain = 0
KSM1 261010Z 11005KT 06/05 A3026 RMK A01 T00610045  RH  091%=      5-min Rain = 0
KSM1 261015Z 12005KT 06/04 A3026 RMK A01 T00600044  RH  091%=      5-min Rain = 0
KSM1 261020Z 12005KT 06/04 A3026 RMK A01 T00570039  RH  090%=      5-min Rain = 0
KSM1 261025Z 12006KT 05/04 A3026 RMK A01 T00530036  RH  091%=      5-min Rain = 0
KSM1 261030Z 12006KT 05/04 A3027 RMK A01 T00510036  RH  092%=      5-min Rain = 0
KSM1 261035Z 10006KT 05/04 A3027 RMK A01 T00530040  RH  093%=      5-min Rain = 0
KSM1 261040Z 09006KT 06/04 A3027 RMK A01 T00550040  RH  092%=      5-min Rain = 0
KSM1 261045Z 09007KT 05/04 A3027 RMK A01 T00540041  RH  093%=      5-min Rain = 0
KSM1 261050Z 10008KT 06/04 A3027 RMK A01 T00560042  RH  093%=      5-min Rain = 0
KSM1 261055Z 10008KT 06/05 A3028 RMK A01 T00580045  RH  093%=      5-min Rain = 0
KSM1 261100Z 10007KT 06/04 A3028 RMK A01 T00580044  RH  092%=      5-min Rain = 0
KSM1 261105Z 11007KT 06/04 A3028 RMK A01 T00570043  RH  092%=      5-min Rain = 0
KSM1 261110Z 10007KT 06/05 A3028 RMK A01 T00590045  RH  093%=      5-min Rain = 0
KSM1 261115Z 10008KT 06/05 A3028 RMK A01 T00590045  RH  093%=      5-min Rain = 0
KSM1 261120Z 11009KT 06/05 A3028 RMK A01 T00610048  RH  093%=      5-min Rain = 0
KSM1 261125Z 10009KT 06/05 A3028 RMK A01 T00620048  RH  093%=      5-min Rain = 0
KSM1 261130Z 10009KT 06/05 A3028 RMK A01 T00630048  RH  092%=      5-min Rain = 0
KSM1 261135Z 10009KT 06/05 A3029 RMK A01 T00620047  RH  092%=      5-min Rain = 0
KSM1 261140Z 10009KT 06/05 A3029 RMK A01 T00610047  RH  092%=      5-min Rain = 0
KSM1 261145Z 10009KT 06/05 A3029 RMK A01 T00600046  RH  093%=      5-min Rain = 0
KSM1 261150Z 09007KT 06/05 A3029 RMK A01 T00600046  RH  093%=      5-min Rain = 0
KSM1 261155Z 09006KT 06/05 A3029 RMK A01 T00590046  RH  093%=      5-min Rain = 0
KSM1 261200Z 09007KT 06/05 A3029 RMK A01 T00600047  RH  093%=      5-min Rain = 0
KSM1 261205Z 09008KT 06/05 A3029 RMK A01 T00600047  RH  093%=      5-min Rain = 0
KSM1 261210Z 09007KT 06/05 A3029 RMK A01 T00610049  RH  094%=      5-min Rain = 0
KSM1 261215Z 10007KT 06/05 A3029 RMK A01 T00630050  RH  094%=      5-min Rain = 0
KSM1 261220Z 09006KT 06/05 A3029 RMK A01 T00630050  RH  093%=      5-min Rain = 0
KSM1 261225Z 09007KT 06/05 A303 RMK A01 T00640050  RH  093%=      5-min Rain = 0
KSM1 261230Z 09007KT 07/05 A303 RMK A01 T00650052  RH  093%=      5-min Rain = 0
KSM1 261235Z 10006KT 07/05 A303 RMK A01 T00660053  RH  093%=      5-min Rain = 0
KSM1 261240Z 10007KT 07/05 A303 RMK A01 T00680054  RH  093%=      5-min Rain = 0
KSM1 261245Z 10008KT 07/05 A303 RMK A01 T00690054  RH  093%=      5-min Rain = 0
KSM1 261250Z 09007KT 07/05 A303 RMK A01 T00690054  RH  092%=      5-min Rain = 0
KSM1 261255Z 10007KT 07/06 A303 RMK A01 T00700055  RH  092%=      5-min Rain = 0
KSM1 261300Z 09008KT 07/06 A3031 RMK A01 T00710055  RH  092%=      5-min Rain = 0
KSM1 261305Z 10008KT 07/06 A3031 RMK A01 T00710055  RH  092%=      5-min Rain = 0
KSM1 261310Z 10008KT 07/06 A3031 RMK A01 T00720056  RH  092%=      5-min Rain = 0
KSM1 261315Z 10009KT 07/06 A3031 RMK A01 T00740057  RH  091%=      5-min Rain = 0
KSM1 261320Z 10009KT 08/06 A3031 RMK A01 T00760057  RH  090%=      5-min Rain = 0
KSM1 261325Z 10010KT 08/06 A3031 RMK A01 T00770057  RH  090%=      5-min Rain = 0
KSM1 261330Z 10011KT 08/06 A3032 RMK A01 T00770057  RH  089%=      5-min Rain = 0
KSM1 261335Z 10010KT 08/06 A3032 RMK A01 T00780058  RH  089%=      5-min Rain = 0
KSM1 261340Z 10010KT 08/06 A3032 RMK A01 T00810059  RH  088%=      5-min Rain = 0
KSM1 261345Z 10011KT 08/06 A3032 RMK A01 T00820058  RH  087%=      5-min Rain = 0
KSM1 261350Z 10010KT 08/06 A3033 RMK A01 T00810058  RH  087%=      5-min Rain = 0
KSM1 261355Z 10010KT 08/06 A3033 RMK A01 T00810058  RH  087%=      5-min Rain = 0
KSM1 261400Z 10010KT 08/06 A3033 RMK A01 T00830059  RH  087%=      5-min Rain = 0
KSM1 261405Z 11010KT 09/06 A3033 RMK A01 T00860060  RH  085%=      5-min Rain = 0
KSM1 261410Z 11011KT 09/06 A3033 RMK A01 T00880061  RH  085%=      5-min Rain = 0
KSM1 261415Z 11010KT 09/06 A3033 RMK A01 T00900061  RH  084%=      5-min Rain = 0
KSM1 261420Z 11011KT 09/06 A3033 RMK A01 T00920062  RH  084%=      5-min Rain = 0
KSM1 261425Z 11012KT 09/06 A3033 RMK A01 T00920062  RH  083%=      5-min Rain = 0
KSM1 261430Z 11011KT 09/06 A3033 RMK A01 T00940062  RH  082%=      5-min Rain = 0
KSM1 261435Z 12011KT 10/06 A3034 RMK A01 T00960062  RH  081%=      5-min Rain = 0
KSM1 261440Z 11012KT 10/06 A3034 RMK A01 T00960061  RH  080%=      5-min Rain = 0
KSM1 261445Z 12011KT 10/06 A3033 RMK A01 T00980061  RH  080%=      5-min Rain = 0
KSM1 261450Z 12011KT 10/06 A3034 RMK A01 T01040063  RH  078%=      5-min Rain = 0
KSM1 261455Z 12012KT 11/06 A3034 RMK A01 T01070064  RH  076%=      5-min Rain = 0
KSM1 261500Z 12013KT 11/06 A3034 RMK A01 T01090063  RH  075%=      5-min Rain = 0
KSM1 261505Z 12013G18KT 11/06 A3034 RMK A01 T01120064  RH  074%=      5-min Rain = 0
KSM1 261510Z 12013KT 12/06 A3033 RMK A01 T01160064  RH  072%=      5-min Rain = 0
KSM1 261515Z 12014G19KT 12/06 A3033 RMK A01 T01160063  RH  072%=      5-min Rain = 0
KSM1 261520Z 12014KT 12/06 A3034 RMK A01 T01150062  RH  072%=      5-min Rain = 0
KSM1 261525Z 12015KT 12/06 A3033 RMK A01 T01160063  RH  071%=      5-min Rain = 0
KSM1 261530Z 13014G19KT 12/06 A3034 RMK A01 T01190063  RH  070%=      5-min Rain = 0
KSM1 261535Z 12014G19KT 12/06 A3034 RMK A01 T01220064  RH  069%=      5-min Rain = 0
KSM1 261540Z 12014KT 12/06 A3034 RMK A01 T01220064  RH  069%=      5-min Rain = 0
KSM1 261545Z 12015KT 12/06 A3034 RMK A01 T01230063  RH  068%=      5-min Rain = 0
KSM1 261550Z 13012G17KT 13/07 A3034 RMK A01 T01260065  RH  068%=      5-min Rain = 0
KSM1 261555Z 13012KT 13/07 A3034 RMK A01 T01310065  RH  066%=      5-min Rain = 0
KSM1 261600Z 13013G18KT 14/07 A3034 RMK A01 T01350065  RH  064%=      5-min Rain = 0
KSM1 261605Z 12012KT 14/07 A3034 RMK A01 T01360065  RH  064%=      5-min Rain = 0
KSM1 261610Z 12011KT 14/07 A3034 RMK A01 T01380065  RH  063%=      5-min Rain = 0
KSM1 261615Z 14012G17KT 14/07 A3034 RMK A01 T01440065  RH  060%=      5-min Rain = 0
KSM1 261620Z 12011KT 14/07 A3034 RMK A01 T01440065  RH  060%=      5-min Rain = 0
KSM1 261625Z 13012KT 15/06 A3034 RMK A01 T01460064  RH  059%=      5-min Rain = 0
KSM1 261630Z 12012G17KT 15/06 A3034 RMK A01 T01480063  RH  058%=      5-min Rain = 0
KSM1 261635Z 13012G18KT 15/06 A3034 RMK A01 T01530063  RH  057%=      5-min Rain = 0
KSM1 261640Z 12013G21KT 15/06 A3034 RMK A01 T01530063  RH  056%=      5-min Rain = 0
KSM1 261645Z 13013KT 15/06 A3033 RMK A01 T01540063  RH  056%=      5-min Rain = 0
KSM1 261650Z 13012KT 16/06 A3033 RMK A01 T01570063  RH  055%=      5-min Rain = 0
KSM1 261655Z 13012KT 15/06 A3033 RMK A01 T01540062  RH  055%=      5-min Rain = 0
KSM1 261700Z 12013KT 16/06 A3033 RMK A01 T01590062  RH  054%=      5-min Rain = 0
KSM1 261705Z 13011G19KT 17/06 A3033 RMK A01 T01650063  RH  052%=      5-min Rain = 0
KSM1 261710Z 13011KT 17/06 A3033 RMK A01 T01660064  RH  052%=      5-min Rain = 0
KSM1 261715Z 13011KT 17/06 A3033 RMK A01 T01670063  RH  051%=      5-min Rain = 0
KSM1 261720Z 13011G16KT 17/06 A3033 RMK A01 T01680061  RH  050%=      5-min Rain = 0
KSM1 261725Z 13012G18KT 17/06 A3033 RMK A01 T01670061  RH  051%=      5-min Rain = 0
KSM1 261730Z 13011KT 17/06 A3033 RMK A01 T01700063  RH  050%=      5-min Rain = 0
KSM1 261735Z 14013G19KT 18/06 A3032 RMK A01 T01750064  RH  049%=      5-min Rain = 0
KSM1 261740Z 14011G16KT 18/07 A3032 RMK A01 T01780065  RH  049%=      5-min Rain = 0
KSM1 261745Z 13011KT 18/07 A3032 RMK A01 T01830066  RH  047%=      5-min Rain = 0
KSM1 261750Z 13013G19KT 18/07 A3032 RMK A01 T01780065  RH  049%=      5-min Rain = 0
KSM1 261755Z 14012G17KT 18/07 A3032 RMK A01 T01750066  RH  050%=      5-min Rain = 0
KSM1 261800Z 13013KT 18/07 A3032 RMK A01 T01750065  RH  050%=      5-min Rain = 0
KSM1 261805Z 13014KT 17/06 A3031 RMK A01 T01720064  RH  050%=      5-min Rain = 0
KSM1 261810Z 14012G17KT 18/07 A3031 RMK A01 T01750066  RH  050%=      5-min Rain = 0
KSM1 261815Z 12011G16KT 18/07 A3031 RMK A01 T01750065  RH  050%=      5-min Rain = 0
KSM1 261820Z 14012G17KT 18/07 A3031 RMK A01 T01790066  RH  049%=      5-min Rain = 0
KSM1 261825Z 14014G19KT 18/07 A3031 RMK A01 T01820065  RH  048%=      5-min Rain = 0
KSM1 261830Z 15013G18KT 18/07 A303 RMK A01 T01820066  RH  048%=      5-min Rain = 0
KSM1 261835Z 15011G17KT 19/07 A303 RMK A01 T01870068  RH  047%=      5-min Rain = 0
KSM1 261840Z 14012KT 19/07 A303 RMK A01 T01880068  RH  047%=      5-min Rain = 0
KSM1 261845Z 14012G18KT 19/07 A303 RMK A01 T01890068  RH  046%=      5-min Rain = 0
KSM1 261850Z 13013KT 19/07 A303 RMK A01 T01880069  RH  047%=      5-min Rain = 0
KSM1 261855Z 13013G18KT 19/07 A3029 RMK A01 T01910068  RH  046%=      5-min Rain = 0
KSM1 261900Z 13012KT 19/07 A3029 RMK A01 T01910069  RH  046%=      5-min Rain = 0
KSM1 261905Z 15011KT 19/07 A3029 RMK A01 T01930070  RH  046%=      5-min Rain = 0
KSM1 261910Z 14011G19KT 20/07 A3028 RMK A01 T01950071  RH  046%=      5-min Rain = 0
KSM1 261915Z 13013G19KT 20/07 A3028 RMK A01 T01950071  RH  046%=      5-min Rain = 0
KSM1 261920Z 14015KT 20/07 A3028 RMK A01 T01950072  RH  046%=      5-min Rain = 0
KSM1 261925Z 14011G16KT 20/07 A3027 RMK A01 T01990074  RH  046%=      5-min Rain = 0
KSM1 261930Z 13014G20KT 20/07 A3027 RMK A01 T02030074  RH  044%=      5-min Rain = 0
KSM1 261935Z 13015KT 21/07 A3027 RMK A01 T02050072  RH  043%=      5-min Rain = 0
KSM1 261940Z 13014G21KT 20/07 A3026 RMK A01 T02030073  RH  044%=      5-min Rain = 0
KSM1 261945Z 13013G19KT 20/07 A3026 RMK A01 T02040073  RH  044%=      5-min Rain = 0
KSM1 261950Z 12013KT 21/07 A3025 RMK A01 T02050074  RH  044%=      5-min Rain = 0
KSM1 261955Z 13014G20KT 21/08 A3025 RMK A01 T02070075  RH  044%=      5-min Rain = 0
KSM1 262000Z 14014G20KT 21/08 A3025 RMK A01 T02070076  RH  044%=      5-min Rain = 0
KSM1 262005Z 14014G19KT 21/08 A3025 RMK A01 T02070076  RH  044%=      5-min Rain = 0
KSM1 262010Z 13012G17KT 21/08 A3024 RMK A01 T02060076  RH  044%=      5-min Rain = 0
KSM1 262015Z 13012G18KT 21/08 A3024 RMK A01 T02100077  RH  043%=      5-min Rain = 0
KSM1 262020Z 14012G19KT 21/08 A3024 RMK A01 T02120077  RH  043%=      5-min Rain = 0
KSM1 262025Z 13012G18KT 21/08 A3024 RMK A01 T02110077  RH  043%=      5-min Rain = 0
KSM1 262030Z 14013G18KT 21/08 A3023 RMK A01 T02120077  RH  043%=      5-min Rain = 0
KSM1 262035Z 14014G21KT 22/08 A3023 RMK A01 T02150077  RH  042%=      5-min Rain = 0
KSM1 262040Z 14012G17KT 22/08 A3023 RMK A01 T02160078  RH  042%=      5-min Rain = 0
KSM1 262045Z 14014G21KT 21/08 A3023 RMK A01 T02140077  RH  042%=      5-min Rain = 0
KSM1 262050Z 13013G19KT 21/08 A3022 RMK A01 T02140077  RH  042%=      5-min Rain = 0
KSM1 262055Z 13012G21KT 22/08 A3022 RMK A01 T02150077  RH  042%=      5-min Rain = 0
KSM1 262100Z 14013G19KT 22/08 A3022 RMK A01 T02160078  RH  042%=      5-min Rain = 0
KSM1 262105Z 13014G19KT 22/08 A3022 RMK A01 T02170077  RH  042%=      5-min Rain = 0
KSM1 262110Z 13014G19KT 22/08 A3021 RMK A01 T02170077  RH  041%=      5-min Rain = 0
KSM1 262115Z 13014G20KT 22/08 A3021 RMK A01 T02190077  RH  041%=      5-min Rain = 0
KSM1 262120Z 13016KT 22/08 A3021 RMK A01 T02200076  RH  041%=      5-min Rain = 0
KSM1 262125Z 13013KT 22/08 A3021 RMK A01 T02210077  RH  041%=      5-min Rain = 0
KSM1 262130Z 15015KT 22/08 A3021 RMK A01 T02220077  RH  040%=      5-min Rain = 0
KSM1 262135Z 13014KT 22/08 A3021 RMK A01 T02210076  RH  040%=      5-min Rain = 0
KSM1 262140Z 15015KT 22/08 A3021 RMK A01 T02190076  RH  041%=      5-min Rain = 0
KSM1 262145Z 13013G18KT 22/08 A302 RMK A01 T02180076  RH  041%=      5-min Rain = 0
KSM1 262150Z 12014KT 22/08 A302 RMK A01 T02210076  RH  040%=      5-min Rain = 0
KSM1 262155Z 13015G20KT 22/08 A302 RMK A01 T02220075  RH  040%=      5-min Rain = 0
KSM1 262200Z 13014G21KT 22/08 A302 RMK A01 T02210076  RH  040%=      5-min Rain = 0
KSM1 262205Z 13015G21KT 22/08 A302 RMK A01 T02180077  RH  041%=      5-min Rain = 0
KSM1 262210Z 14014KT 22/08 A3019 RMK A01 T02180079  RH  042%=      5-min Rain = 0
KSM1 262215Z 14016G21KT 22/08 A3019 RMK A01 T02210078  RH  041%=      5-min Rain = 0
KSM1 262220Z 13014KT 22/08 A3019 RMK A01 T02240079  RH  040%=      5-min Rain = 0
KSM1 262225Z 13015G21KT 22/08 A3019 RMK A01 T02190079  RH  042%=      5-min Rain = 0
KSM1 262230Z 14015KT 22/08 A3019 RMK A01 T02180079  RH  042%=      5-min Rain = 0
KSM1 262235Z 15013G18KT 22/08 A3019 RMK A01 T02200080  RH  042%=      5-min Rain = 0
KSM1 262240Z 13016G21KT 22/08 A3019 RMK A01 T02190079  RH  042%=      5-min Rain = 0
KSM1 262245Z 14015G21KT 22/08 A3019 RMK A01 T02190080  RH  042%=      5-min Rain = 0
KSM1 262250Z 13016G22KT 22/08 A3018 RMK A01 T02180081  RH  042%=      5-min Rain = 0
KSM1 262255Z 13016KT 22/08 A3018 RMK A01 T02220080  RH  041%=      5-min Rain = 0
KSM1 262300Z 14015G20KT 22/08 A3018 RMK A01 T02180082  RH  043%=      5-min Rain = 0
KSM1 262305Z 14013KT 22/08 A3018 RMK A01 T02150083  RH  044%=      5-min Rain = 0
KSM1 262310Z 14013G20KT 22/08 A3018 RMK A01 T02150083  RH  044%=      5-min Rain = 0
KSM1 262315Z 14015G20KT 22/09 A3017 RMK A01 T02180085  RH  044%=      5-min Rain = 0
KSM1 262320Z 14017G22KT 22/08 A3017 RMK A01 T02150084  RH  044%=      5-min Rain = 0
KSM1 262325Z 14013KT 21/09 A3017 RMK A01 T02120086  RH  046%=      5-min Rain = 0
KSM1 262330Z 12016KT 22/09 A3017 RMK A01 T02160088  RH  045%=      5-min Rain = 0
KSM1 262335Z 12017G22KT 22/09 A3017 RMK A01 T02160088  RH  045%=      5-min Rain = 0
KSM1 262340Z 12019G25KT 21/09 A3017 RMK A01 T02140087  RH  045%=      5-min Rain = 0
KSM1 262345Z 13016G22KT 21/09 A3017 RMK A01 T02110087  RH  046%=      5-min Rain = 0
KSM1 262350Z 13017G22KT 21/09 A3017 RMK A01 T02120086  RH  046%=      5-min Rain = 0
KSM1 262355Z 12017G22KT 21/09 A3017 RMK A01 T02110085  RH  046%=      5-min Rain = 0
KSM1 270000Z 13016KT 21/09 A3017 RMK A01 T02130085  RH  045%=      5-min Rain = 0
KSM1 270005Z 13015G20KT 21/08 A3017 RMK A01 T02130084  RH  045%=      5-min Rain = 0
KSM1 270010Z 13016KT 21/09 A3017 RMK A01 T02110085  RH  045%=      5-min Rain = 0
KSM1 270015Z 13016KT 21/08 A3017 RMK A01 T02100084  RH  046%=      5-min Rain = 0
KSM1 270020Z 13015KT 21/09 A3018 RMK A01 T02100085  RH  046%=      5-min Rain = 0
KSM1 270025Z 14016KT 21/09 A3018 RMK A01 T02080085  RH  047%=      5-min Rain = 0
KSM1 270030Z 14017KT 21/09 A3018 RMK A01 T02050085  RH  047%=      5-min Rain = 0
KSM1 270035Z 13014G20KT 20/09 A3018 RMK A01 T02030085  RH  048%=      5-min Rain = 0
KSM1 270040Z 13014G19KT 20/09 A3018 RMK A01 T02000085  RH  049%=      5-min Rain = 0
KSM1 270045Z 13014KT 20/09 A3018 RMK A01 T01980085  RH  050%=      5-min Rain = 0
KSM1 270050Z 12013KT 20/09 A3017 RMK A01 T01950086  RH  051%=      5-min Rain = 0
KSM1 270055Z 13013KT 19/09 A3017 RMK A01 T01930087  RH  052%=      5-min Rain = 0
KSM1 270100Z 13014KT 19/09 A3017 RMK A01 T01920086  RH  052%=      5-min Rain = 0
KSM1 270105Z 13013KT 19/09 A3017 RMK A01 T01910086  RH  052%=      5-min Rain = 0
KSM1 270110Z 13013KT 19/09 A3018 RMK A01 T01890086  RH  053%=      5-min Rain = 0
KSM1 270115Z 13013KT 19/09 A3018 RMK A01 T01880086  RH  053%=      5-min Rain = 0
KSM1 270120Z 12013KT 19/09 A3018 RMK A01 T01860085  RH  053%=      5-min Rain = 0
KSM1 270125Z 12012KT 18/08 A3018 RMK A01 T01830084  RH  054%=      5-min Rain = 0
KSM1 270130Z 12011KT 18/08 A3018 RMK A01 T01810084  RH  054%=      5-min Rain = 0
KSM1 270135Z 12011G16KT 18/08 A3018 RMK A01 T01800083  RH  055%=      5-min Rain = 0
KSM1 270140Z 12011KT 18/08 A3019 RMK A01 T01780083  RH  055%=      5-min Rain = 0
KSM1 270145Z 12010KT 18/08 A3019 RMK A01 T01770082  RH  056%=      5-min Rain = 0
KSM1 270150Z 12010KT 18/08 A3019 RMK A01 T01750082  RH  056%=      5-min Rain = 0
KSM1 270155Z 12011KT 18/08 A3019 RMK A01 T01750081  RH  055%=      5-min Rain = 0
KSM1 270200Z 12011KT 17/08 A3018 RMK A01 T01740080  RH  055%=      5-min Rain = 0
KSM1 270205Z 12012KT 17/08 A3018 RMK A01 T01730079  RH  055%=      5-min Rain = 0
KSM1 270210Z 12012G17KT 17/08 A3018 RMK A01 T01730078  RH  055%=      5-min Rain = 0
KSM1 270215Z 12012KT 17/08 A3018 RMK A01 T01720078  RH  055%=      5-min Rain = 0
KSM1 270220Z 12013KT 17/08 A3018 RMK A01 T01720077  RH  055%=      5-min Rain = 0
KSM1 270225Z 12012G17KT 17/08 A3018 RMK A01 T01710077  RH  055%=      5-min Rain = 0
KSM1 270230Z 12012G17KT 17/08 A3018 RMK A01 T01700076  RH  055%=      5-min Rain = 0
KSM1 270235Z 12013KT 17/08 A3018 RMK A01 T01700076  RH  055%=      5-min Rain = 0
KSM1 270240Z 12013KT 17/08 A3019 RMK A01 T01700075  RH  055%=      5-min Rain = 0
KSM1 270245Z 12013KT 17/08 A3019 RMK A01 T01680075  RH  056%=      5-min Rain = 0
KSM1 270250Z 12012KT 17/08 A3019 RMK A01 T01670075  RH  056%=      5-min Rain = 0
KSM1 270255Z 12012KT 17/07 A3019 RMK A01 T01650074  RH  056%=      5-min Rain = 0
KSM1 270300Z 12012KT 16/07 A3019 RMK A01 T01640074  RH  057%=      5-min Rain = 0
KSM1 270305Z 12012KT 16/07 A3019 RMK A01 T01630074  RH  057%=      5-min Rain = 0
KSM1 270310Z 12012G17KT 16/07 A3019 RMK A01 T01620074  RH  057%=      5-min Rain = 0
KSM1 270315Z 12012KT 16/07 A3019 RMK A01 T01610074  RH  058%=      5-min Rain = 0
KSM1 270320Z 12011KT 16/07 A3019 RMK A01 T01600073  RH  058%=      5-min Rain = 0
KSM1 270325Z 12011KT 16/07 A3019 RMK A01 T01590073  RH  058%=      5-min Rain = 0
KSM1 270330Z 12011KT 16/07 A3019 RMK A01 T01570073  RH  059%=      5-min Rain = 0
KSM1 270335Z 12010KT 16/07 A3019 RMK A01 T01560073  RH  059%=      5-min Rain = 0
KSM1 270340Z 12010KT 15/07 A3019 RMK A01 T01540073  RH  060%=      5-min Rain = 0
KSM1 270345Z 12010KT 15/07 A3019 RMK A01 T01530073  RH  060%=      5-min Rain = 0
KSM1 270350Z 12009KT 15/07 A3019 RMK A01 T01500073  RH  061%=      5-min Rain = 0
KSM1 270355Z 12009KT 15/07 A3019 RMK A01 T01490073  RH  062%=      5-min Rain = 0
KSM1 270400Z 12009KT 15/07 A302 RMK A01 T01470073  RH  063%=      5-min Rain = 0
KSM1 270405Z 12010KT 15/07 A302 RMK A01 T01450072  RH  063%=      5-min Rain = 0
KSM1 270410Z 13010KT 14/07 A302 RMK A01 T01440073  RH  064%=      5-min Rain = 0
KSM1 270415Z 12009KT 14/07 A302 RMK A01 T01420073  RH  065%=      5-min Rain = 0
KSM1 270420Z 12009KT 14/07 A302 RMK A01 T01410072  RH  065%=      5-min Rain = 0
KSM1 270425Z 12009KT 14/07 A302 RMK A01 T01400072  RH  065%=      5-min Rain = 0
KSM1 270430Z 13009KT 14/07 A302 RMK A01 T01400072  RH  065%=      5-min Rain = 0
KSM1 270435Z 13009KT 14/07 A3021 RMK A01 T01390071  RH  065%=      5-min Rain = 0
KSM1 270440Z 13009KT 14/07 A3021 RMK A01 T01380071  RH  066%=      5-min Rain = 0
KSM1 270445Z 13008KT 14/07 A3021 RMK A01 T01370071  RH  066%=      5-min Rain = 0
KSM1 270450Z 13008KT 14/07 A302 RMK A01 T01360070  RH  066%=      5-min Rain = 0
KSM1 270455Z 12009KT 14/07 A302 RMK A01 T01350069  RH  066%=      5-min Rain = 0

Page generated in 0.0396 seconds.